Weather at Connell City Airport

Public forecast

Using degrees Fahrenheit for public forecast. Weather courtesy of forecast.io.

Closest aviation weather report (METAR) to Connell City Airport

Report is more than 6 hours old.

Closest report is Tri Cities Airport, 26.6 nm (49.3 km) SSW.

2022/11/14 14:53 (retrieved 2 years ago)

KPSC 141453Z 00000KT 3/4SM BR OVC033 M04/M05 A3055 RMK AO2 SLP349 I1000 I3000 T10391050 53008 RVRNO

Closest aviation forecast (TAF) to Connell City Airport

Forecast is more than 12 hours old.

Closest forecast is Tri Cities Airport, 26.6 nm (49.3 km) SSW.

2023/02/22 20:12 Ammendment (retrieved 1 year ago)

TAF AMD KPSC 222011Z 2220/2318 35017G24KT P6SM OVC020 TEMPO 2220/2222 1/2SM SN FM222300 35018G25KT P6SM OVC030 FM230000 35017G23KT P6SM BKN040 BKN070 FM231200 30022G29KT P6SM OVC050 FM231500 31018G25KT P6SM OVC050 FM231700 34016G22KT P6SM OVC050